• Join FlightAware (Why Join?)
  • Login
  • US Flag 
05:32AM EDT


 

Airport Tracker/Info


-or-


 

Live Flight TrackerFlight Track Log ✈ CTL15 ✈ 30-Jul-2013 ✈ KMGY - KBKL

Flight Track Log - Related Links

Times and Time Zones

All times are in EDT time to prevent confusion due to time zone crossing. See the CTL15 flight status page for this flight to view local times or setup timezone preferences in your user account.

Time Position Orientation Groundspeed Altitude Reporting Facility
EDT Latitude Longitude Course Direction KTS MPH feet Rate Location/Type
07:45PM 39.5900 -84.1869 47° Northeast 152 175 2,200  Level Indianapolis Center
07:46PM 39.6122 -84.1556 47° Northeast 155 178 2,800 660 Climbing Indianapolis Center
07:48PM 39.6736 -84.0739 46° Northeast 152 175 4,200 660 Climbing Indianapolis Center
07:49PM 39.7050 -84.0358 43° Northeast 157 181 4,900 660 Climbing Indianapolis Center
07:50PM 39.7364 -83.9950 45° Northeast 156 180 5,600 420 Climbing Indianapolis Center
07:52PM 39.7850 -83.9364 43° Northeast  Level FlightAware Approximate
07:54PM 39.8667 -83.8350 43° Northeast 184 212 7,000  Level Indianapolis Center
07:55PM 39.9056 -83.7842 45° Northeast 186 214 7,000  Level Indianapolis Center
07:56PM 39.9214 -83.7650 43° Northeast 177 204 7,000  Level Indianapolis Center
07:57PM 39.9647 -83.7122 43° Northeast 186 214 7,000  Level Indianapolis Center
07:58PM 40.0014 -83.6592 48° Northeast 184 212 7,000  Level Indianapolis Center
07:59PM 40.0218 -83.6492 43° Northeast  Level FlightAware Approximate
07:59PM 40.0328 -83.6200 44° Northeast 184 212 7,000  Level Indianapolis Center
08:00PM 40.0889 -83.5506 43° Northeast 182 209 7,000  Level Indianapolis Center
08:01PM 40.1228 -83.5069 45° Northeast 183 211 7,000  Level Indianapolis Center
08:02PM 40.1589 -83.4608 44° Northeast 184 212 7,000  Level Indianapolis Center
08:03PM 40.1950 -83.4150 44° Northeast 184 212 7,000  Level Indianapolis Center
08:04PM 40.2311 -83.3689 44° Northeast 184 212 7,000  Level Indianapolis Center
08:05PM 40.2694 -83.3203 44° Northeast 185 213 7,000  Level Indianapolis Center
08:06PM 40.3078 -83.2719 44° Northeast 185 213 7,000  Level Indianapolis Center
08:07PM 40.3439 -83.2256 44° Northeast 184 212 7,000  Level Indianapolis Center
08:09PM 40.3931 -83.1614 45° Northeast 183 211 7,000  Level Indianapolis Center
08:10PM 40.4353 -83.1053 45° Northeast 183 211 7,000  Level Indianapolis Center
08:11PM 40.4714 -83.0586 45° Northeast 183 211 7,000  Level Indianapolis Center
08:12PM 40.5067 -83.0119 45° Northeast 180 207 7,000  Level Indianapolis Center
08:13PM 40.5431 -82.9661 44° Northeast 179 206 7,000  Level Indianapolis Center
08:14PM 40.5789 -82.9197 45° Northeast 180 207 7,000  Level Indianapolis Center
08:15PM 40.6147 -82.8728 45° Northeast 179 206 7,000  Level Indianapolis Center
08:16PM 40.6492 -82.8286 44° Northeast 175 201 7,000  Level Indianapolis Center
08:17PM 40.6850 -82.7817 45° Northeast 177 204 7,000 -120 Level Indianapolis Center
08:18PM 40.7178 -82.7294 50° Northeast 181 208 6,800 -420 Descending Indianapolis Center
08:19PM 40.7436 -82.6661 62° Northeast 187 215 6,200 -480 Descending Indianapolis Center
08:22PM 40.8308 -82.4819 58° Northeast 169 194 5,000 -300 Descending Cleveland Center
08:23PM 40.8569 -82.4197 61° Northeast 171 197 5,000  Level Cleveland Center
08:24PM 40.8850 -82.3600 58° Northeast 169 194 5,000  Level Cleveland Center
08:25PM 40.9108 -82.3058 58° Northeast 172 198 5,000  Level Cleveland Center
08:26PM 40.9367 -82.2514 58° Northeast 173 199 5,000 -240 Level Cleveland Center
08:27PM 40.9542 -82.2053 63° Northeast 178 205 4,600 -600 Descending Cleveland Center
08:28PM 40.9800 -82.1425 61° Northeast 191 220 4,000 -300 Descending Cleveland Center
08:29PM 41.0058 -82.0828 60° Northeast 183 211 4,000  Level Cleveland Center
08:30PM 41.0275 -82.0253 63° Northeast 171 197 4,000  Level Cleveland Center
08:31PM 41.0553 -81.9572 62° Northeast 170 196 4,000  Level Cleveland Center
08:32PM 41.0808 -81.9081 55° Northeast 177 204 4,000  Level Cleveland Center
08:33PM 41.1231 -81.8731 32° Northeast 172 198 4,000  Level Cleveland Center
08:34PM 41.1608 -81.8381 35° Northeast 171 197 4,000  Level Cleveland Center
08:35PM 41.2031 -81.8058 30° Northeast 175 201 4,000  Level Cleveland Center
08:36PM 41.2431 -81.7678 36° Northeast 179 206 4,000  Level Cleveland Center
08:37PM 41.2808 -81.7214 43° Northeast 174 200 4,000  Level Cleveland Center
08:38PM 41.3211 -81.6753 41° Northeast 172 198 4,000  Level Cleveland Center
08:39PM 41.3528 -81.6369 42° Northeast 173 199 4,000 -360 Level Cleveland Center
08:40PM 41.3928 -81.5933 39° Northeast 193 222 3,400 -540 Descending Cleveland Center
08:41PM 41.4364 -81.5858 North 182 209 3,000 -480 Descending Cleveland Center
08:42PM 41.4758 -81.6114 334° Northwest 166 191 2,500 -540 Descending Cleveland Center
08:43PM 41.5108 -81.6617 313° West 158 182 2,000 -360 Descending Cleveland Center
08:44PM 41.5272 -81.6981 301° West 104 120 1,800 -600 Descending Cleveland Center
08:45PM 41.5083 -81.7061 198° South 110 127 900 -900 Descending Cleveland Center